sensor_id;sensor_type;location;lat;lon;timestamp;P1;durP1;ratioP1;P2;durP2;ratioP2
5819;SDS011;2936;47.348;9.640;2024-01-06T00:01:30;20.63;;;13.65;;
5819;SDS011;2936;47.348;9.640;2024-01-06T00:03:58;21.63;;;11.02;;
5819;SDS011;2936;47.348;9.640;2024-01-06T00:06:25;18.60;;;12.77;;
5819;SDS011;2936;47.348;9.640;2024-01-06T00:08:53;16.35;;;10.00;;
5819;SDS011;2936;47.348;9.640;2024-01-06T00:11:22;8.65;;;7.85;;
5819;SDS011;2936;47.348;9.640;2024-01-06T00:13:50;6.70;;;6.15;;
5819;SDS011;2936;47.348;9.640;2024-01-06T00:16:18;6.57;;;5.90;;
5819;SDS011;2936;47.348;9.640;2024-01-06T00:18:47;4.90;;;4.60;;
5819;SDS011;2936;47.348;9.640;2024-01-06T00:21:14;4.67;;;4.37;;
5819;SDS011;2936;47.348;9.640;2024-01-06T00:23:42;7.72;;;4.03;;
5819;SDS011;2936;47.348;9.640;2024-01-06T00:26:10;2.58;;;2.47;;
5819;SDS011;2936;47.348;9.640;2024-01-06T00:28:40;3.38;;;3.15;;
5819;SDS011;2936;47.348;9.640;2024-01-06T00:31:08;3.78;;;3.47;;
5819;SDS011;2936;47.348;9.640;2024-01-06T00:33:35;2.88;;;2.78;;
5819;SDS011;2936;47.348;9.640;2024-01-06T00:36:06;2.63;;;2.53;;
5819;SDS011;2936;47.348;9.640;2024-01-06T00:38:34;2.88;;;2.60;;
5819;SDS011;2936;47.348;9.640;2024-01-06T00:41:02;3.65;;;3.35;;
5819;SDS011;2936;47.348;9.640;2024-01-06T00:43:32;2.70;;;2.60;;
5819;SDS011;2936;47.348;9.640;2024-01-06T00:46:02;3.40;;;3.10;;
5819;SDS011;2936;47.348;9.640;2024-01-06T00:48:29;2.22;;;2.13;;
5819;SDS011;2936;47.348;9.640;2024-01-06T00:50:57;2.67;;;2.58;;
5819;SDS011;2936;47.348;9.640;2024-01-06T00:53:25;2.75;;;2.65;;
5819;SDS011;2936;47.348;9.640;2024-01-06T00:55:53;2.30;;;2.20;;
5819;SDS011;2936;47.348;9.640;2024-01-06T00:58:21;2.63;;;2.42;;
5819;SDS011;2936;47.348;9.640;2024-01-06T01:00:49;2.88;;;2.65;;
5819;SDS011;2936;47.348;9.640;2024-01-06T01:03:18;2.70;;;2.50;;
5819;SDS011;2936;47.348;9.640;2024-01-06T01:05:46;7.20;;;3.00;;
5819;SDS011;2936;47.348;9.640;2024-01-06T01:08:14;3.10;;;2.90;;
5819;SDS011;2936;47.348;9.640;2024-01-06T01:10:42;6.53;;;3.65;;
5819;SDS011;2936;47.348;9.640;2024-01-06T01:13:10;3.35;;;3.15;;
5819;SDS011;2936;47.348;9.640;2024-01-06T01:15:38;2.55;;;2.45;;
5819;SDS011;2936;47.348;9.640;2024-01-06T01:18:05;2.80;;;2.60;;
5819;SDS011;2936;47.348;9.640;2024-01-06T01:20:34;2.45;;;2.35;;
5819;SDS011;2936;47.348;9.640;2024-01-06T01:23:02;2.50;;;2.40;;
5819;SDS011;2936;47.348;9.640;2024-01-06T01:25:30;2.83;;;2.72;;
5819;SDS011;2936;47.348;9.640;2024-01-06T01:27:58;2.63;;;2.53;;
5819;SDS011;2936;47.348;9.640;2024-01-06T01:30:26;2.22;;;2.13;;
5819;SDS011;2936;47.348;9.640;2024-01-06T01:32:54;3.72;;;2.47;;
5819;SDS011;2936;47.348;9.640;2024-01-06T01:35:22;2.05;;;2.05;;
5819;SDS011;2936;47.348;9.640;2024-01-06T01:37:52;1.98;;;1.95;;
5819;SDS011;2936;47.348;9.640;2024-01-06T01:40:20;4.50;;;2.80;;
5819;SDS011;2936;47.348;9.640;2024-01-06T01:42:48;5.05;;;2.78;;
5819;SDS011;2936;47.348;9.640;2024-01-06T01:45:15;2.58;;;2.38;;
5819;SDS011;2936;47.348;9.640;2024-01-06T01:47:43;3.47;;;2.00;;
5819;SDS011;2936;47.348;9.640;2024-01-06T01:50:11;2.08;;;1.98;;
5819;SDS011;2936;47.348;9.640;2024-01-06T01:52:39;2.20;;;2.10;;
5819;SDS011;2936;47.348;9.640;2024-01-06T01:55:10;2.20;;;2.10;;
5819;SDS011;2936;47.348;9.640;2024-01-06T01:57:37;2.20;;;2.10;;
5819;SDS011;2936;47.348;9.640;2024-01-06T02:00:06;2.20;;;2.10;;
5819;SDS011;2936;47.348;9.640;2024-01-06T02:02:34;2.35;;;2.25;;
5819;SDS011;2936;47.348;9.640;2024-01-06T02:05:01;2.20;;;2.10;;
5819;SDS011;2936;47.348;9.640;2024-01-06T02:07:29;1.80;;;1.80;;
5819;SDS011;2936;47.348;9.640;2024-01-06T02:09:57;2.00;;;1.90;;
5819;SDS011;2936;47.348;9.640;2024-01-06T02:12:26;2.38;;;2.28;;
5819;SDS011;2936;47.348;9.640;2024-01-06T02:14:54;1.77;;;1.77;;
5819;SDS011;2936;47.348;9.640;2024-01-06T02:17:21;2.45;;;2.30;;
5819;SDS011;2936;47.348;9.640;2024-01-06T02:19:50;2.88;;;2.35;;
5819;SDS011;2936;47.348;9.640;2024-01-06T02:22:20;2.20;;;2.10;;
5819;SDS011;2936;47.348;9.640;2024-01-06T02:24:48;1.95;;;1.95;;
5819;SDS011;2936;47.348;9.640;2024-01-06T02:27:16;2.50;;;2.10;;
5819;SDS011;2936;47.348;9.640;2024-01-06T02:29:43;2.08;;;1.85;;
5819;SDS011;2936;47.348;9.640;2024-01-06T02:32:11;5.22;;;1.90;;
5819;SDS011;2936;47.348;9.640;2024-01-06T02:34:39;1.60;;;1.60;;
5819;SDS011;2936;47.348;9.640;2024-01-06T02:37:06;1.80;;;1.80;;
5819;SDS011;2936;47.348;9.640;2024-01-06T02:39:36;1.60;;;1.60;;
5819;SDS011;2936;47.348;9.640;2024-01-06T02:42:04;1.58;;;1.58;;
5819;SDS011;2936;47.348;9.640;2024-01-06T02:44:31;1.60;;;1.60;;
5819;SDS011;2936;47.348;9.640;2024-01-06T02:46:59;1.80;;;1.70;;
5819;SDS011;2936;47.348;9.640;2024-01-06T02:49:27;1.80;;;1.70;;
5819;SDS011;2936;47.348;9.640;2024-01-06T02:51:55;1.70;;;1.70;;
5819;SDS011;2936;47.348;9.640;2024-01-06T02:54:23;1.60;;;1.60;;
5819;SDS011;2936;47.348;9.640;2024-01-06T02:56:53;1.88;;;1.80;;
5819;SDS011;2936;47.348;9.640;2024-01-06T02:59:20;1.95;;;1.95;;
5819;SDS011;2936;47.348;9.640;2024-01-06T03:01:48;1.77;;;1.73;;
5819;SDS011;2936;47.348;9.640;2024-01-06T03:04:15;1.70;;;1.70;;
5819;SDS011;2936;47.348;9.640;2024-01-06T03:06:43;1.73;;;1.73;;
5819;SDS011;2936;47.348;9.640;2024-01-06T03:09:16;1.60;;;1.60;;
5819;SDS011;2936;47.348;9.640;2024-01-06T03:11:44;1.73;;;1.63;;
5819;SDS011;2936;47.348;9.640;2024-01-06T03:14:14;1.90;;;1.80;;
5819;SDS011;2936;47.348;9.640;2024-01-06T03:16:41;2.03;;;1.92;;
5819;SDS011;2936;47.348;9.640;2024-01-06T03:19:09;2.20;;;2.05;;
5819;SDS011;2936;47.348;9.640;2024-01-06T03:21:37;2.00;;;2.00;;
5819;SDS011;2936;47.348;9.640;2024-01-06T03:24:06;2.50;;;2.40;;
5819;SDS011;2936;47.348;9.640;2024-01-06T03:26:34;2.25;;;2.15;;
5819;SDS011;2936;47.348;9.640;2024-01-06T03:29:00;2.05;;;1.95;;
5819;SDS011;2936;47.348;9.640;2024-01-06T03:31:31;2.28;;;2.17;;
5819;SDS011;2936;47.348;9.640;2024-01-06T03:33:58;2.00;;;2.00;;
5819;SDS011;2936;47.348;9.640;2024-01-06T03:36:26;2.00;;;1.90;;
5819;SDS011;2936;47.348;9.640;2024-01-06T03:38:53;1.90;;;1.80;;
5819;SDS011;2936;47.348;9.640;2024-01-06T03:41:21;2.00;;;1.90;;
5819;SDS011;2936;47.348;9.640;2024-01-06T03:43:49;2.50;;;2.40;;
5819;SDS011;2936;47.348;9.640;2024-01-06T03:46:16;2.45;;;2.35;;
5819;SDS011;2936;47.348;9.640;2024-01-06T03:48:46;2.40;;;2.30;;
5819;SDS011;2936;47.348;9.640;2024-01-06T03:51:13;7.75;;;2.55;;
5819;SDS011;2936;47.348;9.640;2024-01-06T03:53:41;2.70;;;2.60;;
5819;SDS011;2936;47.348;9.640;2024-01-06T03:56:08;2.17;;;2.10;;
5819;SDS011;2936;47.348;9.640;2024-01-06T03:58:36;2.35;;;2.25;;
5819;SDS011;2936;47.348;9.640;2024-01-06T04:01:03;2.72;;;2.60;;
5819;SDS011;2936;47.348;9.640;2024-01-06T04:03:31;2.40;;;2.30;;
5819;SDS011;2936;47.348;9.640;2024-01-06T04:06:00;2.70;;;2.60;;
5819;SDS011;2936;47.348;9.640;2024-01-06T04:08:28;3.70;;;3.60;;
5819;SDS011;2936;47.348;9.640;2024-01-06T04:10:56;3.85;;;3.55;;
5819;SDS011;2936;47.348;9.640;2024-01-06T04:13:23;3.75;;;3.65;;
5819;SDS011;2936;47.348;9.640;2024-01-06T04:15:51;3.08;;;2.97;;
5819;SDS011;2936;47.348;9.640;2024-01-06T04:18:19;2.75;;;2.65;;
5819;SDS011;2936;47.348;9.640;2024-01-06T04:20:46;3.55;;;3.45;;
5819;SDS011;2936;47.348;9.640;2024-01-06T04:23:15;2.72;;;2.63;;
5819;SDS011;2936;47.348;9.640;2024-01-06T04:25:43;2.10;;;2.00;;
5819;SDS011;2936;47.348;9.640;2024-01-06T04:28:10;2.22;;;2.13;;
5819;SDS011;2936;47.348;9.640;2024-01-06T04:30:38;1.90;;;1.90;;
5819;SDS011;2936;47.348;9.640;2024-01-06T04:33:05;2.20;;;2.10;;
5819;SDS011;2936;47.348;9.640;2024-01-06T04:35:33;2.03;;;2.00;;
5819;SDS011;2936;47.348;9.640;2024-01-06T04:38:00;1.90;;;1.90;;
5819;SDS011;2936;47.348;9.640;2024-01-06T04:40:29;2.28;;;2.17;;
5819;SDS011;2936;47.348;9.640;2024-01-06T04:42:57;2.17;;;2.08;;
5819;SDS011;2936;47.348;9.640;2024-01-06T04:45:25;1.80;;;1.80;;
5819;SDS011;2936;47.348;9.640;2024-01-06T04:47:53;2.15;;;2.10;;
5819;SDS011;2936;47.348;9.640;2024-01-06T04:50:20;3.03;;;2.83;;
5819;SDS011;2936;47.348;9.640;2024-01-06T04:52:48;1.95;;;1.95;;
5819;SDS011;2936;47.348;9.640;2024-01-06T04:55:16;2.13;;;2.08;;
5819;SDS011;2936;47.348;9.640;2024-01-06T04:57:45;3.72;;;2.00;;
5819;SDS011;2936;47.348;9.640;2024-01-06T05:00:13;1.98;;;1.90;;
5819;SDS011;2936;47.348;9.640;2024-01-06T05:02:40;2.45;;;2.35;;
5819;SDS011;2936;47.348;9.640;2024-01-06T05:05:08;2.53;;;2.33;;
5819;SDS011;2936;47.348;9.640;2024-01-06T05:07:36;2.22;;;2.13;;
5819;SDS011;2936;47.348;9.640;2024-01-06T05:10:04;2.42;;;2.33;;
5819;SDS011;2936;47.348;9.640;2024-01-06T05:12:31;2.33;;;2.22;;
5819;SDS011;2936;47.348;9.640;2024-01-06T05:15:01;2.50;;;2.40;;
5819;SDS011;2936;47.348;9.640;2024-01-06T05:17:28;3.20;;;3.10;;
5819;SDS011;2936;47.348;9.640;2024-01-06T05:19:56;3.92;;;3.45;;
5819;SDS011;2936;47.348;9.640;2024-01-06T05:22:25;2.30;;;2.20;;
5819;SDS011;2936;47.348;9.640;2024-01-06T05:24:53;1.80;;;1.80;;
5819;SDS011;2936;47.348;9.640;2024-01-06T05:27:20;2.22;;;2.13;;
5819;SDS011;2936;47.348;9.640;2024-01-06T05:29:48;2.08;;;2.00;;
5819;SDS011;2936;47.348;9.640;2024-01-06T05:32:18;2.70;;;2.60;;
5819;SDS011;2936;47.348;9.640;2024-01-06T05:34:46;2.15;;;2.10;;
5819;SDS011;2936;47.348;9.640;2024-01-06T05:37:13;1.90;;;1.90;;
5819;SDS011;2936;47.348;9.640;2024-01-06T05:39:41;1.85;;;1.85;;
5819;SDS011;2936;47.348;9.640;2024-01-06T05:42:10;2.83;;;2.63;;
5819;SDS011;2936;47.348;9.640;2024-01-06T05:44:40;4.53;;;2.88;;
5819;SDS011;2936;47.348;9.640;2024-01-06T05:47:07;2.92;;;2.70;;
5819;SDS011;2936;47.348;9.640;2024-01-06T05:49:38;2.75;;;2.60;;
5819;SDS011;2936;47.348;9.640;2024-01-06T05:52:09;2.67;;;2.58;;
5819;SDS011;2936;47.348;9.640;2024-01-06T05:54:36;2.70;;;2.60;;
5819;SDS011;2936;47.348;9.640;2024-01-06T05:57:07;2.65;;;2.55;;
5819;SDS011;2936;47.348;9.640;2024-01-06T05:59:35;3.58;;;3.28;;
5819;SDS011;2936;47.348;9.640;2024-01-06T06:02:03;3.10;;;2.80;;
5819;SDS011;2936;47.348;9.640;2024-01-06T06:04:30;3.78;;;3.17;;
5819;SDS011;2936;47.348;9.640;2024-01-06T06:07:00;3.53;;;3.22;;
5819;SDS011;2936;47.348;9.640;2024-01-06T06:09:28;2.65;;;2.55;;
5819;SDS011;2936;47.348;9.640;2024-01-06T06:11:56;3.10;;;3.00;;
5819;SDS011;2936;47.348;9.640;2024-01-06T06:14:24;2.33;;;2.22;;
5819;SDS011;2936;47.348;9.640;2024-01-06T06:16:53;2.30;;;2.20;;
5819;SDS011;2936;47.348;9.640;2024-01-06T06:19:21;3.40;;;3.00;;
5819;SDS011;2936;47.348;9.640;2024-01-06T06:21:49;3.95;;;2.75;;
5819;SDS011;2936;47.348;9.640;2024-01-06T06:24:19;2.80;;;2.65;;
5819;SDS011;2936;47.348;9.640;2024-01-06T06:26:47;2.90;;;2.70;;
5819;SDS011;2936;47.348;9.640;2024-01-06T06:29:14;2.78;;;2.67;;
5819;SDS011;2936;47.348;9.640;2024-01-06T06:31:42;3.00;;;2.90;;
5819;SDS011;2936;47.348;9.640;2024-01-06T06:34:10;2.58;;;2.45;;
5819;SDS011;2936;47.348;9.640;2024-01-06T06:36:38;2.47;;;2.38;;
5819;SDS011;2936;47.348;9.640;2024-01-06T06:39:05;3.30;;;3.10;;
5819;SDS011;2936;47.348;9.640;2024-01-06T06:41:36;2.67;;;2.58;;
5819;SDS011;2936;47.348;9.640;2024-01-06T06:44:03;2.00;;;2.00;;
5819;SDS011;2936;47.348;9.640;2024-01-06T06:46:31;2.50;;;2.40;;
5819;SDS011;2936;47.348;9.640;2024-01-06T06:48:59;2.17;;;2.08;;
5819;SDS011;2936;47.348;9.640;2024-01-06T06:51:27;2.30;;;2.20;;
5819;SDS011;2936;47.348;9.640;2024-01-06T06:53:55;2.15;;;2.05;;
5819;SDS011;2936;47.348;9.640;2024-01-06T06:56:23;13.70;;;2.70;;
5819;SDS011;2936;47.348;9.640;2024-01-06T06:58:52;2.50;;;2.40;;
5819;SDS011;2936;47.348;9.640;2024-01-06T07:01:21;1.95;;;1.85;;
5819;SDS011;2936;47.348;9.640;2024-01-06T07:03:49;2.33;;;2.22;;
5819;SDS011;2936;47.348;9.640;2024-01-06T07:06:16;2.40;;;2.30;;
5819;SDS011;2936;47.348;9.640;2024-01-06T07:08:44;2.95;;;2.75;;
5819;SDS011;2936;47.348;9.640;2024-01-06T07:11:12;3.00;;;2.90;;
5819;SDS011;2936;47.348;9.640;2024-01-06T07:13:40;2.70;;;2.60;;
5819;SDS011;2936;47.348;9.640;2024-01-06T07:16:09;2.38;;;2.28;;
5819;SDS011;2936;47.348;9.640;2024-01-06T07:18:38;2.05;;;1.95;;
5819;SDS011;2936;47.348;9.640;2024-01-06T07:21:06;2.50;;;2.40;;
5819;SDS011;2936;47.348;9.640;2024-01-06T07:23:34;2.20;;;2.10;;
5819;SDS011;2936;47.348;9.640;2024-01-06T07:26:02;2.15;;;2.05;;
5819;SDS011;2936;47.348;9.640;2024-01-06T07:28:30;2.38;;;2.28;;
5819;SDS011;2936;47.348;9.640;2024-01-06T07:30:57;3.28;;;2.80;;
5819;SDS011;2936;47.348;9.640;2024-01-06T07:33:28;3.13;;;3.03;;
5819;SDS011;2936;47.348;9.640;2024-01-06T07:35:55;3.03;;;2.92;;
5819;SDS011;2936;47.348;9.640;2024-01-06T07:38:23;2.95;;;2.75;;
5819;SDS011;2936;47.348;9.640;2024-01-06T07:40:51;2.90;;;2.78;;
5819;SDS011;2936;47.348;9.640;2024-01-06T07:43:19;2.70;;;2.60;;
5819;SDS011;2936;47.348;9.640;2024-01-06T07:45:47;2.75;;;2.55;;
5819;SDS011;2936;47.348;9.640;2024-01-06T07:48:16;2.83;;;2.70;;
5819;SDS011;2936;47.348;9.640;2024-01-06T07:50:45;3.22;;;3.03;;
5819;SDS011;2936;47.348;9.640;2024-01-06T07:53:12;4.22;;;3.92;;
5819;SDS011;2936;47.348;9.640;2024-01-06T07:55:40;7.45;;;3.58;;
5819;SDS011;2936;47.348;9.640;2024-01-06T07:58:07;3.85;;;3.50;;
5819;SDS011;2936;47.348;9.640;2024-01-06T08:00:36;3.15;;;3.05;;
5819;SDS011;2936;47.348;9.640;2024-01-06T08:03:04;3.33;;;3.20;;
5819;SDS011;2936;47.348;9.640;2024-01-06T08:05:32;3.03;;;2.85;;
5819;SDS011;2936;47.348;9.640;2024-01-06T08:08:02;3.65;;;3.40;;
5819;SDS011;2936;47.348;9.640;2024-01-06T08:10:29;3.55;;;3.20;;
5819;SDS011;2936;47.348;9.640;2024-01-06T08:12:57;4.43;;;4.15;;
5819;SDS011;2936;47.348;9.640;2024-01-06T08:15:25;4.03;;;3.72;;
5819;SDS011;2936;47.348;9.640;2024-01-06T08:17:53;4.07;;;3.70;;
5819;SDS011;2936;47.348;9.640;2024-01-06T08:20:20;4.60;;;4.30;;
5819;SDS011;2936;47.348;9.640;2024-01-06T08:22:48;3.80;;;3.60;;
5819;SDS011;2936;47.348;9.640;2024-01-06T08:25:18;3.00;;;2.90;;
5819;SDS011;2936;47.348;9.640;2024-01-06T08:27:48;3.88;;;3.67;;
5819;SDS011;2936;47.348;9.640;2024-01-06T08:30:15;4.10;;;3.90;;
5819;SDS011;2936;47.348;9.640;2024-01-06T08:32:45;3.80;;;3.60;;
5819;SDS011;2936;47.348;9.640;2024-01-06T08:35:13;4.60;;;4.30;;
5819;SDS011;2936;47.348;9.640;2024-01-06T08:37:42;4.53;;;4.22;;
5819;SDS011;2936;47.348;9.640;2024-01-06T08:40:10;5.65;;;5.10;;
5819;SDS011;2936;47.348;9.640;2024-01-06T08:42:39;9.05;;;5.30;;
5819;SDS011;2936;47.348;9.640;2024-01-06T08:45:09;7.60;;;5.82;;
5819;SDS011;2936;47.348;9.640;2024-01-06T08:47:36;6.45;;;5.85;;
5819;SDS011;2936;47.348;9.640;2024-01-06T08:50:05;4.93;;;4.53;;
5819;SDS011;2936;47.348;9.640;2024-01-06T08:52:34;4.05;;;3.85;;
5819;SDS011;2936;47.348;9.640;2024-01-06T08:55:01;4.60;;;4.30;;
5819;SDS011;2936;47.348;9.640;2024-01-06T08:57:29;4.65;;;4.35;;
5819;SDS011;2936;47.348;9.640;2024-01-06T08:59:58;4.82;;;4.63;;
5819;SDS011;2936;47.348;9.640;2024-01-06T09:02:25;3.75;;;3.65;;
5819;SDS011;2936;47.348;9.640;2024-01-06T09:04:53;4.13;;;3.92;;
5819;SDS011;2936;47.348;9.640;2024-01-06T09:07:21;4.53;;;4.32;;
5819;SDS011;2936;47.348;9.640;2024-01-06T09:09:49;6.38;;;4.68;;
5819;SDS011;2936;47.348;9.640;2024-01-06T09:12:16;8.20;;;4.80;;
5819;SDS011;2936;47.348;9.640;2024-01-06T09:14:44;5.40;;;4.53;;
5819;SDS011;2936;47.348;9.640;2024-01-06T09:17:20;6.07;;;5.20;;
5819;SDS011;2936;47.348;9.640;2024-01-06T09:19:48;5.93;;;5.18;;
5819;SDS011;2936;47.348;9.640;2024-01-06T09:22:19;5.18;;;4.60;;
5819;SDS011;2936;47.348;9.640;2024-01-06T09:24:47;6.50;;;5.22;;
5819;SDS011;2936;47.348;9.640;2024-01-06T09:27:14;4.97;;;4.68;;
5819;SDS011;2936;47.348;9.640;2024-01-06T09:29:42;5.88;;;5.38;;
5819;SDS011;2936;47.348;9.640;2024-01-06T09:32:09;4.65;;;4.32;;
5819;SDS011;2936;47.348;9.640;2024-01-06T09:34:40;5.35;;;4.82;;
5819;SDS011;2936;47.348;9.640;2024-01-06T09:37:07;3.90;;;3.70;;
5819;SDS011;2936;47.348;9.640;2024-01-06T09:39:34;4.43;;;4.13;;
5819;SDS011;2936;47.348;9.640;2024-01-06T09:42:02;5.35;;;4.85;;
5819;SDS011;2936;47.348;9.640;2024-01-06T09:44:29;5.22;;;4.72;;
5819;SDS011;2936;47.348;9.640;2024-01-06T09:46:57;4.18;;;3.88;;
5819;SDS011;2936;47.348;9.640;2024-01-06T09:49:25;4.68;;;4.38;;
5819;SDS011;2936;47.348;9.640;2024-01-06T09:51:58;4.40;;;4.20;;
5819;SDS011;2936;47.348;9.640;2024-01-06T09:54:25;4.72;;;4.43;;
5819;SDS011;2936;47.348;9.640;2024-01-06T09:56:59;4.50;;;4.30;;
5819;SDS011;2936;47.348;9.640;2024-01-06T09:59:27;4.07;;;3.78;;
5819;SDS011;2936;47.348;9.640;2024-01-06T10:01:59;6.50;;;3.80;;
5819;SDS011;2936;47.348;9.640;2024-01-06T10:04:28;3.63;;;3.42;;
5819;SDS011;2936;47.348;9.640;2024-01-06T10:06:56;4.38;;;4.07;;
5819;SDS011;2936;47.348;9.640;2024-01-06T10:09:27;3.88;;;3.67;;
5819;SDS011;2936;47.348;9.640;2024-01-06T10:11:55;4.47;;;4.18;;
5819;SDS011;2936;47.348;9.640;2024-01-06T10:14:23;4.25;;;4.00;;
5819;SDS011;2936;47.348;9.640;2024-01-06T10:16:52;3.67;;;3.50;;
5819;SDS011;2936;47.348;9.640;2024-01-06T10:19:20;4.00;;;3.80;;
5819;SDS011;2936;47.348;9.640;2024-01-06T10:21:48;4.22;;;3.92;;
5819;SDS011;2936;47.348;9.640;2024-01-06T10:24:17;3.72;;;3.42;;
5819;SDS011;2936;47.348;9.640;2024-01-06T10:26:48;3.95;;;3.67;;
5819;SDS011;2936;47.348;9.640;2024-01-06T10:29:15;4.28;;;3.85;;
5819;SDS011;2936;47.348;9.640;2024-01-06T10:31:43;5.03;;;4.63;;
5819;SDS011;2936;47.348;9.640;2024-01-06T10:34:10;4.88;;;4.35;;
5819;SDS011;2936;47.348;9.640;2024-01-06T10:36:38;3.65;;;3.45;;
5819;SDS011;2936;47.348;9.640;2024-01-06T10:39:06;3.70;;;3.50;;
5819;SDS011;2936;47.348;9.640;2024-01-06T10:41:34;4.05;;;3.75;;
5819;SDS011;2936;47.348;9.640;2024-01-06T10:44:05;3.70;;;3.50;;
5819;SDS011;2936;47.348;9.640;2024-01-06T10:46:33;4.10;;;3.80;;
5819;SDS011;2936;47.348;9.640;2024-01-06T10:49:01;3.25;;;3.05;;
5819;SDS011;2936;47.348;9.640;2024-01-06T10:51:30;3.65;;;3.42;;
5819;SDS011;2936;47.348;9.640;2024-01-06T10:54:00;2.97;;;2.88;;
5819;SDS011;2936;47.348;9.640;2024-01-06T10:56:28;3.35;;;3.25;;
5819;SDS011;2936;47.348;9.640;2024-01-06T10:58:59;3.40;;;3.17;;
5819;SDS011;2936;47.348;9.640;2024-01-06T11:01:30;3.25;;;3.05;;
5819;SDS011;2936;47.348;9.640;2024-01-06T11:03:58;3.20;;;3.10;;
5819;SDS011;2936;47.348;9.640;2024-01-06T11:06:26;3.95;;;3.65;;
5819;SDS011;2936;47.348;9.640;2024-01-06T11:08:56;3.22;;;3.13;;
5819;SDS011;2936;47.348;9.640;2024-01-06T11:11:26;3.60;;;3.30;;
5819;SDS011;2936;47.348;9.640;2024-01-06T11:16:40;4.50;;;4.30;;
5819;SDS011;2936;47.348;9.640;2024-01-06T11:22:18;3.55;;;3.35;;
5819;SDS011;2936;47.348;9.640;2024-01-06T11:24:47;3.25;;;3.05;;
5819;SDS011;2936;47.348;9.640;2024-01-06T11:27:18;3.60;;;3.40;;
5819;SDS011;2936;47.348;9.640;2024-01-06T11:29:47;3.20;;;3.10;;
5819;SDS011;2936;47.348;9.640;2024-01-06T11:32:22;3.13;;;2.92;;
5819;SDS011;2936;47.348;9.640;2024-01-06T11:34:52;2.97;;;2.83;;
5819;SDS011;2936;47.348;9.640;2024-01-06T11:37:24;3.30;;;3.10;;
5819;SDS011;2936;47.348;9.640;2024-01-06T11:39:52;3.38;;;3.20;;
5819;SDS011;2936;47.348;9.640;2024-01-06T11:42:20;3.25;;;3.05;;
5819;SDS011;2936;47.348;9.640;2024-01-06T11:44:52;3.95;;;3.08;;
5819;SDS011;2936;47.348;9.640;2024-01-06T11:47:30;2.88;;;2.78;;
5819;SDS011;2936;47.348;9.640;2024-01-06T11:49:57;3.92;;;3.72;;
5819;SDS011;2936;47.348;9.640;2024-01-06T11:52:29;3.53;;;3.33;;
5819;SDS011;2936;47.348;9.640;2024-01-06T11:54:57;6.70;;;3.30;;
5819;SDS011;2936;47.348;9.640;2024-01-06T11:57:25;6.47;;;3.72;;
5819;SDS011;2936;47.348;9.640;2024-01-06T11:59:53;5.38;;;3.67;;
5819;SDS011;2936;47.348;9.640;2024-01-06T12:02:21;3.00;;;2.90;;
5819;SDS011;2936;47.348;9.640;2024-01-06T12:04:53;4.07;;;3.67;;
5819;SDS011;2936;47.348;9.640;2024-01-06T12:07:21;4.15;;;3.83;;
5819;SDS011;2936;47.348;9.640;2024-01-06T12:09:50;3.65;;;3.55;;
5819;SDS011;2936;47.348;9.640;2024-01-06T12:12:20;4.50;;;4.20;;
5819;SDS011;2936;47.348;9.640;2024-01-06T12:14:47;3.70;;;3.45;;
5819;SDS011;2936;47.348;9.640;2024-01-06T12:17:16;4.50;;;3.92;;
5819;SDS011;2936;47.348;9.640;2024-01-06T12:19:43;4.40;;;4.10;;
5819;SDS011;2936;47.348;9.640;2024-01-06T12:22:14;3.85;;;3.65;;
5819;SDS011;2936;47.348;9.640;2024-01-06T12:24:41;7.20;;;4.63;;
5819;SDS011;2936;47.348;9.640;2024-01-06T12:27:10;3.88;;;3.50;;
5819;SDS011;2936;47.348;9.640;2024-01-06T12:29:37;4.05;;;3.80;;
5819;SDS011;2936;47.348;9.640;2024-01-06T12:32:06;3.90;;;3.70;;
5819;SDS011;2936;47.348;9.640;2024-01-06T12:34:34;4.03;;;3.80;;
5819;SDS011;2936;47.348;9.640;2024-01-06T12:37:02;4.20;;;3.80;;
5819;SDS011;2936;47.348;9.640;2024-01-06T12:39:32;4.35;;;4.05;;
5819;SDS011;2936;47.348;9.640;2024-01-06T12:42:00;3.97;;;3.42;;
5819;SDS011;2936;47.348;9.640;2024-01-06T12:44:28;3.97;;;3.78;;
5819;SDS011;2936;47.348;9.640;2024-01-06T12:46:57;4.63;;;3.33;;
5819;SDS011;2936;47.348;9.640;2024-01-06T12:49:25;4.00;;;3.80;;
5819;SDS011;2936;47.348;9.640;2024-01-06T12:51:52;4.25;;;3.97;;
5819;SDS011;2936;47.348;9.640;2024-01-06T12:54:20;3.55;;;3.35;;
5819;SDS011;2936;47.348;9.640;2024-01-06T12:56:49;3.53;;;3.28;;
5819;SDS011;2936;47.348;9.640;2024-01-06T12:59:17;3.78;;;3.67;;
5819;SDS011;2936;47.348;9.640;2024-01-06T13:01:44;4.95;;;4.30;;
5819;SDS011;2936;47.348;9.640;2024-01-06T13:04:12;7.85;;;4.10;;
5819;SDS011;2936;47.348;9.640;2024-01-06T13:06:40;5.05;;;4.05;;
5819;SDS011;2936;47.348;9.640;2024-01-06T13:09:08;4.57;;;3.70;;
5819;SDS011;2936;47.348;9.640;2024-01-06T13:11:41;4.28;;;3.92;;
5819;SDS011;2936;47.348;9.640;2024-01-06T13:14:12;4.82;;;4.53;;
5819;SDS011;2936;47.348;9.640;2024-01-06T13:16:40;4.57;;;4.25;;
5819;SDS011;2936;47.348;9.640;2024-01-06T13:19:08;13.93;;;5.10;;
5819;SDS011;2936;47.348;9.640;2024-01-06T13:21:36;7.43;;;4.28;;
5819;SDS011;2936;47.348;9.640;2024-01-06T13:24:04;4.93;;;4.65;;
5819;SDS011;2936;47.348;9.640;2024-01-06T13:26:33;8.40;;;4.32;;
5819;SDS011;2936;47.348;9.640;2024-01-06T13:29:01;4.85;;;4.40;;
5819;SDS011;2936;47.348;9.640;2024-01-06T13:31:30;5.65;;;5.15;;
5819;SDS011;2936;47.348;9.640;2024-01-06T13:33:57;5.35;;;5.00;;
5819;SDS011;2936;47.348;9.640;2024-01-06T13:36:25;8.35;;;7.60;;
5819;SDS011;2936;47.348;9.640;2024-01-06T13:38:53;6.28;;;5.68;;
5819;SDS011;2936;47.348;9.640;2024-01-06T13:41:20;5.72;;;5.35;;
5819;SDS011;2936;47.348;9.640;2024-01-06T13:43:47;5.72;;;5.22;;
5819;SDS011;2936;47.348;9.640;2024-01-06T13:46:16;5.55;;;5.15;;
5819;SDS011;2936;47.348;9.640;2024-01-06T13:48:44;7.05;;;6.25;;
5819;SDS011;2936;47.348;9.640;2024-01-06T13:51:12;6.00;;;5.50;;
5819;SDS011;2936;47.348;9.640;2024-01-06T13:53:39;5.22;;;4.88;;
5819;SDS011;2936;47.348;9.640;2024-01-06T13:56:08;4.85;;;4.57;;
5819;SDS011;2936;47.348;9.640;2024-01-06T13:58:35;5.38;;;4.88;;
5819;SDS011;2936;47.348;9.640;2024-01-06T14:01:03;4.60;;;4.28;;
5819;SDS011;2936;47.348;9.640;2024-01-06T14:03:31;5.57;;;5.07;;
5819;SDS011;2936;47.348;9.640;2024-01-06T14:06:01;5.35;;;4.95;;
5819;SDS011;2936;47.348;9.640;2024-01-06T14:08:29;4.80;;;4.40;;
5819;SDS011;2936;47.348;9.640;2024-01-06T14:10:56;4.90;;;4.60;;
5819;SDS011;2936;47.348;9.640;2024-01-06T14:13:24;5.22;;;4.80;;
5819;SDS011;2936;47.348;9.640;2024-01-06T14:15:51;7.28;;;6.65;;
5819;SDS011;2936;47.348;9.640;2024-01-06T14:18:19;7.10;;;6.40;;
5819;SDS011;2936;47.348;9.640;2024-01-06T14:20:46;8.93;;;5.22;;
5819;SDS011;2936;47.348;9.640;2024-01-06T14:23:15;4.82;;;4.35;;
5819;SDS011;2936;47.348;9.640;2024-01-06T14:25:43;4.93;;;4.55;;
5819;SDS011;2936;47.348;9.640;2024-01-06T14:28:10;4.50;;;4.30;;
5819;SDS011;2936;47.348;9.640;2024-01-06T14:30:38;4.95;;;4.65;;
5819;SDS011;2936;47.348;9.640;2024-01-06T14:33:05;9.00;;;5.72;;
5819;SDS011;2936;47.348;9.640;2024-01-06T14:35:34;7.90;;;5.10;;
5819;SDS011;2936;47.348;9.640;2024-01-06T14:38:01;6.05;;;5.47;;
5819;SDS011;2936;47.348;9.640;2024-01-06T14:40:32;6.55;;;5.07;;
5819;SDS011;2936;47.348;9.640;2024-01-06T14:42:59;14.13;;;5.18;;
5819;SDS011;2936;47.348;9.640;2024-01-06T14:45:28;4.95;;;4.53;;
5819;SDS011;2936;47.348;9.640;2024-01-06T14:47:56;6.00;;;4.80;;
5819;SDS011;2936;47.348;9.640;2024-01-06T14:50:24;5.13;;;4.72;;
5819;SDS011;2936;47.348;9.640;2024-01-06T14:52:52;4.70;;;4.40;;
5819;SDS011;2936;47.348;9.640;2024-01-06T14:55:22;6.40;;;5.57;;
5819;SDS011;2936;47.348;9.640;2024-01-06T14:57:51;6.93;;;6.43;;
5819;SDS011;2936;47.348;9.640;2024-01-06T15:00:19;21.17;;;5.32;;
5819;SDS011;2936;47.348;9.640;2024-01-06T15:02:46;12.82;;;6.50;;
5819;SDS011;2936;47.348;9.640;2024-01-06T15:05:15;12.18;;;5.45;;
5819;SDS011;2936;47.348;9.640;2024-01-06T15:07:42;6.25;;;5.28;;
5819;SDS011;2936;47.348;9.640;2024-01-06T15:10:10;7.10;;;5.95;;
5819;SDS011;2936;47.348;9.640;2024-01-06T15:12:39;6.05;;;5.65;;
5819;SDS011;2936;47.348;9.640;2024-01-06T15:15:08;8.20;;;5.22;;
5819;SDS011;2936;47.348;9.640;2024-01-06T15:17:36;8.65;;;4.88;;
5819;SDS011;2936;47.348;9.640;2024-01-06T15:20:04;5.88;;;4.30;;
5819;SDS011;2936;47.348;9.640;2024-01-06T15:22:31;4.40;;;4.20;;
5819;SDS011;2936;47.348;9.640;2024-01-06T15:24:59;4.68;;;4.28;;
5819;SDS011;2936;47.348;9.640;2024-01-06T15:27:30;13.65;;;4.43;;